La Paz, Bolivia
Current Conditions -  °F | °C
As of 6:00 PM on Friday 19 Dec 2014 (Local Time) from SLLP Reporting Station
Scattered Clouds Scattered Clouds  
Wind Chill: 55°   Ceiling: Unl
Heat Index: 55°   Visibility: 6mi
Dew Point: 39°   Wind: 17mph
Humidity: 54%   Direction: 120°ESE
Pressure: 30.42"   Gusts: NA
Location:  16.5°S, 68.15°W
Report Text: SLLP 192200Z 12015KT 9999 FEW015 FEW017CB SCT200 13/04 Q1030
Loading
Personal Weather Stations






























Interactive Weather Map New forecast layout! Learn more

10-Day Weather Forecast

Advertisements
Track Severe Weather on mobile